Time;durP1;ratioP1;P1;durP2;ratioP2;P2;SDS_P1;SDS_P2;PMS_P1;PMS_P2;Temp;Humidity;BMP_temperature;BMP_pressure;BME280_temperature;BME280_humidity;BME280_pressure;Samples;Min_cycle;Max_cycle;Signal;HPM_P1;HPM_P2
2022/07/07 00:01:47;;;;;;;;;1.33;1.33;;;;;22.94;46.41;102051.28;4956481;28;45357;-77
2022/07/07 00:04:13;;;;;;;;;2.00;2.00;;;;;22.90;46.50;102033.28;4954825;28;47480;-77
2022/07/07 00:06:38;;;;;;;;;2.00;2.00;;;;;23.01;46.47;102053.88;4956106;28;45519;-77
2022/07/07 00:09:04;;;;;;;;;2.00;2.00;;;;;22.94;46.49;102043.16;4956436;28;45449;-77
2022/07/07 00:11:30;;;;;;;;;1.67;1.67;;;;;22.86;46.59;102050.47;4956541;28;45405;-77
2022/07/07 00:13:55;;;;;;;;;2.00;2.00;;;;;22.84;46.62;102038.78;4954697;28;46075;-77
2022/07/07 00:16:21;;;;;;;;;2.67;1.33;;;;;23.08;46.53;102061.00;4956252;28;45485;-77
2022/07/07 00:18:48;;;;;;;;;1.00;1.00;;;;;23.02;46.35;102040.34;4954551;28;45559;-77
2022/07/07 00:21:13;;;;;;;;;2.00;2.00;;;;;23.07;46.96;102034.88;4956053;28;45579;-77
2022/07/07 00:23:39;;;;;;;;;1.33;1.33;;;;;23.02;46.34;102043.03;4955871;28;45465;-77
2022/07/07 00:26:05;;;;;;;;;1.67;1.67;;;;;23.04;46.27;102037.63;4956256;28;45429;-77
2022/07/07 00:28:31;;;;;;;;;2.00;2.00;;;;;23.05;46.54;102043.03;4954892;28;45426;-77
2022/07/07 00:30:56;;;;;;;;;2.00;2.00;;;;;23.01;46.68;102033.16;4955915;28;45384;-77
2022/07/07 00:33:22;;;;;;;;;2.00;2.00;;;;;23.07;46.68;102032.19;4955696;28;46204;-77
2022/07/07 00:35:47;;;;;;;;;2.00;2.00;;;;;22.98;46.63;102024.16;4955830;28;45251;-77
2022/07/07 00:38:13;;;;;;;;;1.33;1.33;;;;;23.04;46.62;102035.81;4957873;28;45325;-77
2022/07/07 00:40:38;;;;;;;;;2.00;2.00;;;;;23.02;46.50;102029.50;4959212;28;45262;-77
2022/07/07 00:43:04;;;;;;;;;3.00;3.00;;;;;22.98;47.20;102037.69;4959468;28;45637;-77
2022/07/07 00:45:30;;;;;;;;;2.00;2.00;;;;;22.93;46.96;102024.22;4959347;28;45239;-77
2022/07/07 00:47:55;;;;;;;;;3.00;2.00;;;;;22.98;46.80;102021.47;4968431;28;45441;-77
2022/07/07 00:50:21;;;;;;;;;1.67;1.67;;;;;22.92;46.52;101996.28;4978998;28;45236;-77
2022/07/07 00:52:47;;;;;;;;;2.00;2.00;;;;;23.06;46.67;102030.38;4978191;28;45559;-77
2022/07/07 00:55:13;;;;;;;;;2.00;2.00;;;;;22.96;46.38;102002.53;4978670;28;45424;-77
2022/07/07 00:57:39;;;;;;;;;1.33;1.33;;;;;22.97;46.85;102020.56;4977256;28;45356;-77
2022/07/07 01:00:08;;;;;;;;;3.00;2.00;;;;;22.82;46.90;101996.41;4978839;28;45425;-77
2022/07/07 01:02:34;;;;;;;;;2.00;2.00;;;;;22.88;47.68;102010.78;4978144;28;45411;-77
2022/07/07 01:05:03;;;;;;;;;2.00;2.00;;;;;22.90;47.13;102008.91;4978642;28;45368;-77
2022/07/07 01:07:30;;;;;;;;;3.33;2.33;;;;;22.86;47.13;101996.34;4978567;28;45451;-77
2022/07/07 01:09:57;;;;;;;;;2.00;2.00;;;;;22.90;46.84;101989.09;4978872;28;45710;-78
2022/07/07 01:12:23;;;;;;;;;2.33;2.33;;;;;22.99;46.83;101998.91;4978454;28;45248;-78
2022/07/07 01:14:48;;;;;;;;;2.00;2.00;;;;;22.95;47.05;101977.28;4978085;28;45401;-78
2022/07/07 01:17:13;;;;;;;;;3.00;3.00;;;;;22.94;47.04;101978.19;4976756;28;45523;-78
2022/07/07 01:19:39;;;;;;;;;3.00;3.00;;;;;22.94;46.79;101983.63;4978476;28;45654;-78
2022/07/07 01:22:12;;;;;;;;;3.33;2.00;;;;;22.89;46.89;101990.00;4976956;28;46240;-78
2022/07/07 01:24:37;;;;;;;;;2.00;2.00;;;;;22.99;46.48;101991.66;4978347;28;45372;-77
2022/07/07 01:27:06;;;;;;;;;2.00;2.00;;;;;22.86;46.65;101981.94;4978302;28;45305;-77
2022/07/07 01:29:40;;;;;;;;;3.00;2.00;;;;;22.97;46.41;101998.94;4976743;28;45640;-78
2022/07/07 01:32:08;;;;;;;;;2.00;2.00;;;;;22.92;46.97;101995.38;4977840;28;45496;-77
2022/07/07 01:34:33;;;;;;;;;2.67;2.67;;;;;22.71;47.01;101973.06;4977942;28;45452;-78
2022/07/07 01:36:59;;;;;;;;;2.00;2.00;;;;;22.77;47.17;101996.47;4978170;28;45579;-78
2022/07/07 01:39:25;;;;;;;;;3.00;2.00;;;;;22.64;47.34;101989.41;4978260;28;45351;-77
2022/07/07 01:41:50;;;;;;;;;3.00;3.00;;;;;22.45;47.39;101957.16;4977770;28;45689;-77
2022/07/07 01:44:16;;;;;;;;;1.00;1.00;;;;;22.58;47.64;101979.56;4977628;28;45422;-77
2022/07/07 01:46:41;;;;;;;;;2.00;2.00;;;;;22.44;47.21;101961.66;4938387;28;45822;-77
2022/07/07 01:49:06;;;;;;;;;3.33;1.67;;;;;22.53;47.06;101979.63;4955313;28;45550;-78
2022/07/07 01:51:32;;;;;;;;;2.00;2.00;;;;;22.63;47.51;101995.72;4957966;28;45449;-78
2022/07/07 01:53:57;;;;;;;;;1.67;1.67;;;;;22.71;47.35;101988.41;4957868;28;45365;-77
2022/07/07 01:56:22;;;;;;;;;2.00;2.00;;;;;22.58;47.17;101957.91;4958132;28;45393;-78
2022/07/07 01:58:48;;;;;;;;;3.00;3.00;;;;;22.71;46.77;101974.88;4957892;28;45376;-77
2022/07/07 02:01:13;;;;;;;;;2.00;2.00;;;;;22.48;47.33;101964.34;4958114;28;46166;-77
2022/07/07 02:03:38;;;;;;;;;2.00;1.67;;;;;22.56;47.60;101981.41;4956953;28;45903;-79
2022/07/07 02:06:04;;;;;;;;;1.00;1.00;;;;;22.50;47.23;101959.81;4957947;28;45389;-78
2022/07/07 02:08:29;;;;;;;;;1.00;1.00;;;;;22.54;47.28;101966.97;4958172;28;45512;-79
2022/07/07 02:11:13;;;;;;;;;2.33;2.33;;;;;22.40;47.69;101938.31;4956608;28;46934;-78
2022/07/07 02:13:47;;;;;;;;;3.00;3.00;;;;;22.54;47.73;101962.44;4957653;28;45474;-79
2022/07/07 02:16:14;;;;;;;;;2.00;2.00;;;;;22.56;47.52;101960.63;4957991;28;45400;-78
2022/07/07 02:18:41;;;;;;;;;2.00;2.00;;;;;22.43;47.46;101927.44;4957818;28;45496;-78
2022/07/07 02:21:09;;;;;;;;;2.00;2.00;;;;;22.65;47.45;101956.03;4957662;28;45651;-79
2022/07/07 02:23:35;;;;;;;;;3.00;3.00;;;;;22.59;47.27;101944.38;4956525;28;45434;-78
2022/07/07 02:26:01;;;;;;;;;1.33;1.33;;;;;22.69;47.33;101955.97;4957713;28;45532;-78
2022/07/07 02:28:27;;;;;;;;;2.00;2.00;;;;;22.72;47.30;101957.75;4957703;28;45552;-78
2022/07/07 02:30:57;;;;;;;;;2.00;2.00;;;;;22.59;47.07;101938.97;4956090;28;47661;-78
2022/07/07 02:33:23;;;;;;;;;2.00;2.00;;;;;22.55;47.28;101952.56;4956369;28;45393;-78
2022/07/07 02:35:50;;;;;;;;;3.00;3.00;;;;;22.44;47.55;101956.25;4957490;28;45529;-78
2022/07/07 02:38:15;;;;;;;;;4.00;3.00;;;;;22.32;47.79;101936.53;4957921;28;45474;-78
2022/07/07 02:40:41;;;;;;;;;3.33;2.00;;;;;22.36;47.97;101938.34;4956039;28;48130;-78
2022/07/07 02:43:12;;;;;;;;;3.00;3.00;;;;;22.40;48.08;101937.38;4957184;28;45339;-78
2022/07/07 02:45:41;;;;;;;;;2.00;2.00;;;;;22.39;48.01;101946.41;4957618;28;45405;-78
2022/07/07 02:48:08;;;;;;;;;2.67;2.67;;;;;22.40;47.83;101948.19;4957465;28;45946;-78
2022/07/07 02:50:33;;;;;;;;;2.33;2.33;;;;;22.21;47.85;101929.44;4957381;28;45492;-78
2022/07/07 02:52:59;;;;;;;;;3.00;2.00;;;;;22.33;48.25;101952.78;4957052;28;45543;-79
2022/07/07 02:55:24;;;;;;;;;2.00;2.00;;;;;22.41;48.13;101958.13;4956272;28;45547;-78
2022/07/07 02:57:51;;;;;;;;;2.00;2.00;;;;;22.42;47.89;101951.81;4956985;28;45488;-78
2022/07/07 03:00:17;;;;;;;;;2.00;2.00;;;;;22.24;47.98;101934.81;4956973;28;46238;-78
2022/07/07 03:02:42;;;;;;;;;2.00;2.00;;;;;22.26;48.42;101941.13;4957165;28;45405;-78
2022/07/07 03:05:08;;;;;;;;;3.67;2.67;;;;;22.36;48.18;101951.84;4957366;28;45890;-79
2022/07/07 03:07:33;;;;;;;;;2.00;2.00;;;;;22.25;48.20;101928.50;4957269;28;45470;-79
2022/07/07 03:09:58;;;;;;;;;3.67;3.00;;;;;22.30;48.57;101943.78;4956862;28;46503;-77
2022/07/07 03:12:24;;;;;;;;;2.00;2.00;;;;;22.17;48.39;101927.69;4957023;28;45452;-78
2022/07/07 03:14:49;;;;;;;;;2.00;2.00;;;;;22.16;48.48;101934.00;4957090;28;45341;-77
2022/07/07 03:17:14;;;;;;;;;2.33;2.33;;;;;22.20;49.05;101962.78;4957070;28;45392;-77
2022/07/07 03:19:40;;;;;;;;;4.67;3.33;;;;;22.18;48.50;101956.53;4955530;28;50212;-78
2022/07/07 03:22:05;;;;;;;;;2.00;2.00;;;;;22.20;48.92;101957.38;4957017;28;45409;-77
2022/07/07 03:24:31;;;;;;;;;1.67;1.67;;;;;22.04;49.08;101936.84;4956927;28;45423;-77
2022/07/07 03:26:58;;;;;;;;;3.00;3.00;;;;;22.22;48.74;101960.97;4956641;28;45578;-78
2022/07/07 03:29:25;;;;;;;;;3.00;2.00;;;;;22.16;49.14;101952.91;4956816;28;45394;-78
2022/07/07 03:31:50;;;;;;;;;3.00;3.00;;;;;22.09;49.19;101938.59;4956531;28;45484;-77
2022/07/07 03:34:15;;;;;;;;;2.00;2.00;;;;;22.18;49.34;101961.00;4957015;28;45434;-77
2022/07/07 03:36:41;;;;;;;;;2.33;2.33;;;;;21.92;49.26;101909.00;4956769;28;45572;-77
2022/07/07 03:39:06;;;;;;;;;1.33;1.33;;;;;22.06;49.46;101935.00;4955360;28;46928;-77
2022/07/07 03:41:31;;;;;;;;;3.00;3.00;;;;;22.01;49.61;101921.56;4956195;28;45385;-77
2022/07/07 03:43:57;;;;;;;;;3.00;3.00;;;;;22.05;49.86;101947.66;4956560;28;45319;-77
2022/07/07 03:46:22;;;;;;;;;3.50;2.00;;;;;22.07;49.81;101939.50;4955520;28;45468;-77
2022/07/07 03:48:47;;;;;;;;;2.67;2.67;;;;;21.70;49.88;101885.81;4956350;28;46342;-77
2022/07/07 03:51:13;;;;;;;;;5.00;4.00;;;;;21.92;49.86;101908.13;4956373;28;45420;-77
2022/07/07 03:53:38;;;;;;;;;4.33;4.33;;;;;21.99;49.42;101919.78;4956578;28;45535;-77
2022/07/07 03:56:04;;;;;;;;;3.00;3.00;;;;;21.95;50.09;101921.59;4955883;28;45641;-77
2022/07/07 03:58:29;;;;;;;;;4.67;3.00;;;;;21.96;50.22;101919.81;4955308;28;48077;-77
2022/07/07 04:00:54;;;;;;;;;3.33;2.67;;;;;22.02;50.28;101919.75;4956248;28;45390;-77
2022/07/07 04:03:20;;;;;;;;;4.00;3.00;;;;;22.09;49.70;101935.91;4956706;28;45574;-77
2022/07/07 04:05:45;;;;;;;;;3.00;3.00;;;;;21.91;49.69;101918.06;4955161;28;45504;-77
2022/07/07 04:08:11;;;;;;;;;3.00;3.00;;;;;21.89;50.59;101911.75;4956298;28;45564;-77
2022/07/07 04:10:36;;;;;;;;;3.00;3.00;;;;;22.07;50.23;101929.59;4955661;28;45516;-77
2022/07/07 04:13:01;;;;;;;;;2.67;2.67;;;;;22.00;50.83;101916.19;4957691;28;45536;-77
2022/07/07 04:15:27;;;;;;;;;5.00;3.00;;;;;21.99;50.58;101920.66;4959896;28;45524;-77
2022/07/07 04:17:52;;;;;;;;;3.00;3.00;;;;;21.96;50.83;101920.69;4959359;28;45514;-77
2022/07/07 04:20:17;;;;;;;;;2.33;2.33;;;;;21.97;51.08;101917.09;4959704;28;49609;-77
2022/07/07 04:22:43;;;;;;;;;3.00;3.00;;;;;21.98;50.65;101915.28;4959551;28;45457;-77
2022/07/07 04:25:08;;;;;;;;;2.00;2.00;;;;;21.96;50.69;101903.59;4957837;28;45568;-78
2022/07/07 04:27:34;;;;;;;;;4.33;3.33;;;;;21.96;51.07;101917.13;4958356;28;47509;-77
2022/07/07 04:29:59;;;;;;;;;2.67;2.67;;;;;22.05;50.99;101920.63;4959274;28;45482;-77
2022/07/07 04:32:24;;;;;;;;;3.00;3.00;;;;;22.07;50.86;101917.91;4959838;28;45583;-77
2022/07/07 04:34:50;;;;;;;;;3.00;3.00;;;;;21.96;51.06;101898.19;4959482;28;45441;-77
2022/07/07 04:37:16;;;;;;;;;4.33;3.00;;;;;22.15;50.95;101931.31;4959394;28;46157;-77
2022/07/07 04:39:41;;;;;;;;;4.00;2.00;;;;;21.93;51.14;101904.53;4957964;28;45700;-77
2022/07/07 04:42:06;;;;;;;;;3.00;3.00;;;;;22.03;51.46;101927.81;4958087;28;45435;-77
2022/07/07 04:44:32;;;;;;;;;4.33;3.67;;;;;22.03;51.64;101932.34;4959423;28;45543;-77
2022/07/07 04:46:57;;;;;;;;;3.00;3.00;;;;;21.97;51.69;101935.09;4957630;28;48313;-77
2022/07/07 04:49:22;;;;;;;;;3.33;3.33;;;;;21.99;51.76;101936.00;4959352;28;45450;-77
2022/07/07 04:51:48;;;;;;;;;4.00;2.67;;;;;21.99;51.41;101926.06;4959277;28;45413;-77
2022/07/07 04:54:14;;;;;;;;;4.67;4.67;;;;;22.12;51.41;101953.84;4957541;28;45471;-77
2022/07/07 04:56:40;;;;;;;;;5.00;4.00;;;;;21.96;51.93;101922.50;4959001;28;45467;-77
2022/07/07 04:59:05;;;;;;;;;3.00;0.00;;;;;22.14;51.61;101953.84;4959134;28;45453;-77
2022/07/07 05:01:31;;;;;;;;;4.00;4.00;;;;;22.15;51.45;101952.94;4959186;28;45410;-77
2022/07/07 05:03:56;;;;;;;;;4.33;4.33;;;;;22.10;51.69;101948.47;4958782;28;45420;-77
2022/07/07 05:06:21;;;;;;;;;4.00;4.00;;;;;22.20;51.70;101962.78;4958966;28;46287;-77
2022/07/07 05:08:47;;;;;;;;;4.00;4.00;;;;;22.11;52.10;101949.38;4958396;28;45412;-77
2022/07/07 05:11:12;;;;;;;;;3.67;3.67;;;;;22.09;51.99;101959.31;4958990;28;45327;-77
2022/07/07 05:13:38;;;;;;;;;5.33;3.00;;;;;21.93;52.75;101948.63;4958942;28;45328;-77
2022/07/07 05:16:05;;;;;;;;;1.67;1.00;;;;;22.10;52.71;101980.91;4958440;28;46154;-71
2022/07/07 05:18:31;;;;;;;;;3.67;3.67;;;;;22.12;52.21;101970.06;4952490;28;45339;-69
2022/07/07 05:20:57;;;;;;;;;4.00;4.00;;;;;22.03;51.97;101964.78;4954818;28;45423;-70
2022/07/07 05:23:25;;;;;;;;;4.00;4.00;;;;;22.18;52.55;101979.94;4957399;28;45484;-73
2022/07/07 05:25:51;;;;;;;;;2.33;2.33;;;;;22.07;52.42;101969.25;4957144;28;46394;-72
2022/07/07 05:28:16;;;;;;;;;4.00;4.00;;;;;22.02;51.92;101968.38;4956743;28;45778;-72
2022/07/07 05:30:41;;;;;;;;;4.00;4.00;;;;;21.90;53.03;101958.59;4957404;28;45530;-72
2022/07/07 05:33:07;;;;;;;;;4.67;3.67;;;;;21.93;52.80;101961.25;4957443;28;45452;-72
2022/07/07 05:35:34;;;;;;;;;5.00;4.00;;;;;21.87;53.82;101955.91;4956388;28;46981;-72
2022/07/07 05:38:00;;;;;;;;;3.00;3.00;;;;;22.00;53.22;101965.69;4954334;28;45539;-72
2022/07/07 05:40:26;;;;;;;;;5.33;4.00;;;;;22.08;53.05;101969.22;4957667;28;45472;-72
2022/07/07 05:42:52;;;;;;;;;3.00;3.00;;;;;22.19;52.13;101974.53;4957315;28;45602;-72
2022/07/07 05:45:17;;;;;;;;;5.00;3.00;;;;;22.08;53.28;101977.34;4956523;28;46066;-72
2022/07/07 05:47:43;;;;;;;;;5.00;4.00;;;;;22.06;53.25;101956.63;4956135;28;45755;-72
2022/07/07 05:50:08;;;;;;;;;4.00;3.00;;;;;22.27;52.83;101960.94;4955259;28;45904;-72
2022/07/07 05:52:34;;;;;;;;;4.00;4.00;;;;;22.20;52.72;101967.31;4955527;28;45466;-72
2022/07/07 05:54:59;;;;;;;;;5.00;2.67;;;;;22.32;52.87;101968.97;4962118;28;46956;-72
2022/07/07 05:57:24;;;;;;;;;3.67;3.67;;;;;22.18;52.40;101974.53;4965950;28;45467;-71
2022/07/07 05:59:50;;;;;;;;;4.00;4.00;;;;;22.22;52.72;101976.28;4965839;28;45488;-71
2022/07/07 06:02:15;;;;;;;;;5.00;3.67;;;;;22.23;52.51;101981.66;4967230;28;45582;-71
2022/07/07 06:04:41;;;;;;;;;3.00;3.00;;;;;22.02;53.45;101947.66;4961989;28;46147;-72
2022/07/07 06:07:06;;;;;;;;;3.67;1.00;;;;;22.29;52.06;101996.94;4957467;28;45314;-70
2022/07/07 06:09:32;;;;;;;;;4.33;3.67;;;;;22.00;52.76;101959.41;4957266;28;45476;-72
2022/07/07 06:11:58;;;;;;;;;5.00;3.67;;;;;22.21;52.72;102002.44;4958733;28;45489;-69
2022/07/07 06:14:23;;;;;;;;;4.33;3.33;;;;;22.21;52.82;102006.97;4957244;28;46290;-70
2022/07/07 06:16:48;;;;;;;;;4.00;4.00;;;;;22.14;53.34;101998.00;4956985;28;45360;-70
2022/07/07 06:19:14;;;;;;;;;4.00;3.00;;;;;22.13;52.99;102000.72;4957027;28;45330;-69
2022/07/07 06:21:41;;;;;;;;;3.67;3.00;;;;;22.23;53.29;102016.81;4955868;28;45353;-69
2022/07/07 06:24:06;;;;;;;;;4.67;2.67;;;;;22.39;52.73;102024.81;4956904;28;45405;-69
2022/07/07 06:26:32;;;;;;;;;3.00;3.00;;;;;22.48;52.48;102022.03;4957323;28;45602;-69
2022/07/07 06:28:58;;;;;;;;;4.00;3.00;;;;;22.51;52.40;102013.88;4957091;28;45397;-70
2022/07/07 06:31:23;;;;;;;;;3.67;3.67;;;;;22.63;51.95;102025.47;4959321;28;45385;-69
2022/07/07 06:33:49;;;;;;;;;4.33;4.33;;;;;22.68;52.02;102023.63;4962334;28;46046;-69
2022/07/07 06:36:14;;;;;;;;;6.00;4.00;;;;;22.60;51.86;102027.31;4965463;28;45495;-69
2022/07/07 06:38:39;;;;;;;;;3.00;3.00;;;;;22.39;51.90;102017.63;4957653;28;45743;-70
2022/07/07 06:41:05;;;;;;;;;2.67;2.67;;;;;22.52;52.26;102028.31;4957938;28;45376;-70
2022/07/07 06:43:30;;;;;;;;;4.00;4.00;;;;;22.59;51.95;102030.03;4957875;28;45383;-70
2022/07/07 06:45:55;;;;;;;;;3.00;3.00;;;;;22.46;52.12;102028.34;4957781;28;45614;-69
2022/07/07 06:48:21;;;;;;;;;3.33;3.33;;;;;22.32;52.12;102033.88;4956682;28;45373;-70
2022/07/07 06:50:46;;;;;;;;;3.00;3.00;;;;;22.26;53.32;102033.03;4943401;28;45678;-69
2022/07/07 06:53:12;;;;;;;;;3.00;2.33;;;;;22.33;53.00;102035.66;4944668;28;45881;-69
2022/07/07 06:55:37;;;;;;;;;3.00;3.00;;;;;22.21;52.90;102023.19;4945554;28;45419;-69
2022/07/07 06:58:03;;;;;;;;;3.00;3.00;;;;;22.23;52.80;102038.44;4956647;28;45431;-69
2022/07/07 07:00:30;;;;;;;;;3.67;2.67;;;;;22.26;53.05;102033.03;4957941;28;45373;-69
2022/07/07 07:02:56;;;;;;;;;2.00;2.00;;;;;22.28;53.22;102022.19;4957646;28;45499;-68
2022/07/07 07:05:21;;;;;;;;;3.67;3.00;;;;;22.38;52.64;102033.84;4957079;28;45432;-69
2022/07/07 07:07:47;;;;;;;;;2.67;2.67;;;;;22.36;53.25;102032.97;4957630;28;45292;-69
2022/07/07 07:10:12;;;;;;;;;3.33;3.00;;;;;22.56;53.10;102030.97;4957236;28;45390;-69
2022/07/07 07:12:38;;;;;;;;;3.00;3.00;;;;;22.73;52.50;102051.53;4957282;28;46470;-69
2022/07/07 07:15:05;;;;;;;;;3.00;3.00;;;;;22.78;52.17;102038.81;4957000;28;45424;-69
2022/07/07 07:17:31;;;;;;;;;3.00;3.00;;;;;22.78;51.71;102037.03;4956876;28;45402;-71
2022/07/07 07:19:57;;;;;;;;;2.67;2.67;;;;;22.78;52.05;102053.28;4942754;28;45499;-69
2022/07/07 07:22:23;;;;;;;;;3.67;3.00;;;;;22.82;52.18;102064.06;4946625;28;45639;-70
2022/07/07 07:24:49;;;;;;;;;3.33;2.33;;;;;22.77;51.75;102045.19;4950145;28;45463;-69
2022/07/07 07:27:14;;;;;;;;;3.00;2.67;;;;;22.84;52.01;102065.84;4962430;28;45433;-69
2022/07/07 07:29:39;;;;;;;;;2.00;2.00;;;;;22.87;51.93;102073.00;4951648;28;45339;-70
2022/07/07 07:32:06;;;;;;;;;2.67;2.67;;;;;22.91;51.62;102064.84;4949296;28;45497;-69
2022/07/07 07:34:31;;;;;;;;;3.67;3.33;;;;;22.99;51.76;102062.03;4950843;28;45548;-70
2022/07/07 07:36:56;;;;;;;;;2.00;2.00;;;;;23.09;50.96;102066.44;4951737;28;45561;-70
2022/07/07 07:39:22;;;;;;;;;3.00;3.00;;;;;23.15;50.79;102067.28;4949041;28;45418;-70
2022/07/07 07:41:47;;;;;;;;;3.00;3.00;;;;;23.21;50.44;102053.69;4949427;28;46263;-70
2022/07/07 07:44:12;;;;;;;;;2.00;1.00;;;;;23.16;50.29;102064.56;4950540;28;45523;-70
2022/07/07 07:46:38;;;;;;;;;4.00;3.00;;;;;23.17;50.82;102066.38;4950266;28;45479;-69
2022/07/07 07:49:06;;;;;;;;;3.33;2.00;;;;;23.16;50.06;102075.41;4949074;28;45650;-70
2022/07/07 07:51:32;;;;;;;;;2.00;2.00;;;;;23.32;50.46;102094.16;4949610;28;46116;-70
2022/07/07 07:53:58;;;;;;;;;4.00;4.00;;;;;23.44;50.19;102089.47;4948738;28;45404;-70
2022/07/07 07:56:24;;;;;;;;;3.00;3.00;;;;;23.43;50.05;102100.31;4948620;28;45550;-69
2022/07/07 07:58:49;;;;;;;;;2.00;2.00;;;;;23.27;50.22;102092.41;4949413;28;45811;-70
2022/07/07 08:01:14;;;;;;;;;3.33;3.00;;;;;23.27;50.55;102088.81;4950003;28;45480;-69
2022/07/07 08:03:41;;;;;;;;;4.67;4.00;;;;;23.22;50.58;102079.84;4937626;28;45875;-69
2022/07/07 08:06:06;;;;;;;;;2.00;2.00;;;;;23.10;50.96;102075.44;4948668;28;45541;-69
2022/07/07 08:08:32;;;;;;;;;3.00;2.00;;;;;23.21;50.74;102089.78;4950833;28;45361;-69
2022/07/07 08:10:57;;;;;;;;;2.67;2.00;;;;;23.10;51.49;102083.56;4949350;28;46278;-69
2022/07/07 08:13:22;;;;;;;;;1.67;1.67;;;;;23.17;51.02;102079.03;4949196;28;46737;-70
2022/07/07 08:15:48;;;;;;;;;3.00;3.00;;;;;23.28;50.98;102080.66;4947505;28;46584;-70
2022/07/07 08:18:13;;;;;;;;;2.00;2.00;;;;;23.35;50.69;102064.34;4953705;28;45489;-69
2022/07/07 08:20:39;;;;;;;;;2.00;2.00;;;;;23.54;50.15;102076.69;4952580;28;47240;-69
2022/07/07 08:23:04;;;;;;;;;2.00;2.00;;;;;23.63;50.07;102079.28;4954003;28;45582;-70
2022/07/07 08:25:30;;;;;;;;;2.00;2.00;;;;;23.70;49.50;102077.38;4953148;28;45593;-70
2022/07/07 08:27:55;;;;;;;;;2.33;1.00;;;;;23.84;49.30;102078.97;4951147;28;45513;-69
2022/07/07 08:30:20;;;;;;;;;2.00;2.00;;;;;23.92;49.34;102055.41;4947329;28;46890;-69
2022/07/07 08:32:46;;;;;;;;;2.33;2.00;;;;;24.16;48.91;102075.78;4952143;28;45699;-69
2022/07/07 08:35:16;;;;;;;;;2.67;2.67;;;;;24.14;48.10;102050.53;4953480;28;45524;-70
2022/07/07 08:37:41;;;;;;;;;3.00;2.00;;;;;24.18;48.25;102071.25;4951374;28;45620;-69
2022/07/07 08:40:07;;;;;;;;;4.00;2.00;;;;;24.09;48.11;102074.09;4953327;28;45809;-69
2022/07/07 08:42:32;;;;;;;;;2.67;2.67;;;;;24.15;48.33;102069.47;4950601;28;45516;-70
2022/07/07 08:44:57;;;;;;;;;2.67;2.00;;;;;24.07;48.56;102057.84;4952892;28;45631;-69
2022/07/07 08:47:25;;;;;;;;;2.00;2.00;;;;;24.19;48.07;102080.25;4950657;28;45476;-70
2022/07/07 08:49:51;;;;;;;;;2.00;2.00;;;;;24.15;48.22;102068.59;4951485;28;47312;-69
2022/07/07 08:52:16;;;;;;;;;2.00;1.00;;;;;24.27;47.36;102071.06;4952559;28;45623;-69
2022/07/07 08:54:43;;;;;;;;;2.00;2.00;;;;;24.27;47.59;102062.94;4952626;28;45671;-69
2022/07/07 08:57:08;;;;;;;;;1.00;1.00;;;;;24.37;47.35;102073.63;4949912;28;45507;-69
2022/07/07 08:59:34;;;;;;;;;1.33;1.00;;;;;24.49;47.33;102076.13;4953939;28;46465;-69
2022/07/07 09:02:02;;;;;;;;;2.00;2.00;;;;;24.53;47.17;102074.25;4954632;28;45905;-71
2022/07/07 09:04:27;;;;;;;;;2.00;2.00;;;;;24.50;46.96;102064.38;4955924;28;45589;-71
2022/07/07 09:06:54;;;;;;;;;1.67;1.67;;;;;24.50;46.64;102069.78;4952317;28;46832;-70
2022/07/07 09:09:38;;;;;;;;;1.00;1.00;;;;;24.70;46.55;102076.66;4951443;28;46509;-70
2022/07/07 09:12:05;;;;;;;;;1.00;1.00;;;;;24.77;46.18;102073.81;4951537;28;45544;-71
2022/07/07 09:14:39;;;;;;;;;2.00;1.00;;;;;24.68;46.06;102037.81;4952360;28;45879;-71
2022/07/07 09:17:15;;;;;;;;;2.00;1.00;;;;;24.94;46.04;102069.88;4952296;28;45464;-71
2022/07/07 09:19:42;;;;;;;;;1.00;1.00;;;;;25.09;45.38;102091.28;4950273;28;46176;-71
2022/07/07 09:22:08;;;;;;;;;0.33;0.33;;;;;25.06;44.84;102082.31;4951161;28;45457;-72
2022/07/07 09:24:33;;;;;;;;;2.00;2.00;;;;;24.94;45.12;102076.19;4950651;28;45836;-70
2022/07/07 09:26:58;;;;;;;;;1.00;1.00;;;;;24.94;45.00;102065.34;4951374;28;45427;-71
2022/07/07 09:29:24;;;;;;;;;0.50;0.00;;;;;25.02;44.36;102078.78;4951516;28;46144;-70
2022/07/07 09:32:00;;;;;;;;;2.00;1.00;;;;;25.14;44.77;102100.22;4951494;28;45382;-70
2022/07/07 09:34:28;;;;;;;;;1.00;1.00;;;;;25.13;44.78;102090.31;4952424;28;45592;-77
2022/07/07 09:39:50;;;;;;;;;1.00;1.00;;;;;25.07;45.05;102092.25;4949138;28;45928;-71
2022/07/07 09:42:29;;;;;;;;;2.00;1.00;;;;;25.18;44.73;102103.78;4948644;28;45447;-71
2022/07/07 09:44:57;;;;;;;;;0.33;0.33;;;;;25.14;44.73;102085.75;4950101;28;45445;-70
2022/07/07 09:47:24;;;;;;;;;1.67;1.67;;;;;25.17;44.90;102093.84;4951251;28;45570;-70
2022/07/07 09:50:03;;;;;;;;;2.00;1.33;;;;;25.19;45.08;102108.28;4951461;28;45495;-70
2022/07/07 09:52:30;;;;;;;;;2.00;2.00;;;;;25.28;44.76;102107.19;4949988;28;45847;-70
2022/07/07 09:54:57;;;;;;;;;3.00;2.00;;;;;25.31;45.07;102108.00;4952294;28;46322;-71
2022/07/07 09:57:23;;;;;;;;;2.00;1.00;;;;;25.20;45.08;102120.94;4950337;28;45462;-73
2022/07/07 09:59:48;;;;;;;;;2.33;2.33;;;;;25.09;45.21;102118.44;4947425;28;46318;-73
2022/07/07 10:02:22;;;;;;;;;1.00;1.00;;;;;25.05;44.78;102127.59;4952503;28;45555;-72
2022/07/07 10:04:51;;;;;;;;;2.00;1.00;;;;;24.97;45.12;102151.25;4950215;28;45943;-71
2022/07/07 10:07:22;;;;;;;;;1.00;1.00;;;;;24.73;45.83;102134.50;4953497;28;45363;-71
2022/07/07 10:09:53;;;;;;;;;2.00;2.00;;;;;24.64;45.52;102148.22;4938676;28;46099;-72
2022/07/07 10:12:24;;;;;;;;;1.67;1.67;;;;;24.55;45.72;102138.41;4952775;28;45975;-72
2022/07/07 10:14:54;;;;;;;;;3.00;3.00;;;;;24.55;46.35;102134.81;4938292;28;45556;-71
2022/07/07 10:17:20;;;;;;;;;1.00;1.00;;;;;24.57;46.25;102149.22;4938531;28;45436;-72
2022/07/07 10:19:46;;;;;;;;;0.00;0.00;;;;;24.56;46.06;102147.47;4937155;28;45669;-72
2022/07/07 10:22:13;;;;;;;;;2.00;2.00;;;;;24.73;46.05;102171.63;4937830;28;45382;-72
2022/07/07 10:24:40;;;;;;;;;2.00;2.00;;;;;24.74;45.46;102148.97;4938557;28;45464;-72
2022/07/07 10:27:06;;;;;;;;;3.00;2.00;;;;;24.80;45.25;102167.88;4936464;28;45519;-72
2022/07/07 10:29:53;;;;;;;;;1.00;1.00;;;;;24.79;45.13;102168.78;4938231;28;47695;-72
2022/07/07 10:32:51;;;;;;;;;4.00;3.00;;;;;24.81;45.57;102170.56;4938392;28;45421;-72
2022/07/07 10:35:18;;;;;;;;;2.00;2.00;;;;;24.77;44.95;102185.09;4955221;28;45409;-74
2022/07/07 10:37:49;;;;;;;;;2.00;1.00;;;;;24.82;44.51;102180.50;4957178;28;45683;-74
2022/07/07 10:40:22;;;;;;;;;1.00;1.00;;;;;25.04;44.16;102188.22;4980426;28;48188;-74
2022/07/07 10:42:50;;;;;;;;;4.50;3.00;;;;;25.14;43.86;102198.00;4964487;28;45393;-74
2022/07/07 10:45:16;;;;;;;;;2.00;2.00;;;;;25.12;43.99;102183.56;4965022;28;45401;-73
2022/07/07 10:47:41;;;;;;;;;1.67;1.67;;;;;25.28;43.72;102197.72;4964597;28;45488;-74
2022/07/07 10:50:31;;;;;;;;;2.33;1.00;;;;;25.21;43.89;102187.91;4966728;28;45326;-74
2022/07/07 10:52:58;;;;;;;;;1.00;1.00;;;;;25.16;43.76;102200.66;4970255;28;45451;-74
2022/07/07 10:55:57;;;;;;;;;1.33;1.33;;;;;25.14;43.85;102208.84;4959194;28;45480;-74
2022/07/07 10:58:55;;;;;;;;;1.67;1.00;;;;;25.17;44.04;102203.38;4949157;28;45598;-74
2022/07/07 11:01:22;;;;;;;;;2.00;2.00;;;;;25.02;44.42;102178.31;4955529;28;48104;-76
2022/07/07 11:03:48;;;;;;;;;1.00;1.00;;;;;24.87;44.02;102190.38;4926348;28;45512;-73
2022/07/07 11:06:13;;;;;;;;;1.67;1.67;;;;;24.85;44.61;102200.34;4949433;28;45425;-74
2022/07/07 11:08:39;;;;;;;;;1.33;1.33;;;;;24.45;44.76;102159.38;4950385;28;45410;-73
2022/07/07 11:11:06;;;;;;;;;2.33;2.33;;;;;24.45;44.82;102193.75;4948515;28;46165;-73
2022/07/07 11:13:31;;;;;;;;;3.33;2.33;;;;;24.57;45.19;102217.97;4947747;28;45423;-74
2022/07/07 11:16:05;;;;;;;;;2.00;1.00;;;;;24.58;44.94;102214.31;4951412;28;45344;-73
2022/07/07 11:18:34;;;;;;;;;2.00;2.00;;;;;24.63;44.41;102192.59;4951886;28;45469;-73
2022/07/07 11:21:01;;;;;;;;;2.00;2.00;;;;;24.74;44.81;102198.72;4948833;28;46553;-72
2022/07/07 11:23:54;;;;;;;;;3.33;3.00;;;;;24.93;44.69;102210.13;4950844;28;45551;-73
2022/07/07 11:26:23;;;;;;;;;9.00;8.00;;;;;25.10;44.49;102212.53;4947959;28;45420;-74